HTDO Airport Information

Runway Information
Runway 10 Length 6700 ft width 98 ft Elevation 3670 ft Threshold N/A Heading 91
Runway 28 Length 6700 ft Width 98 ft Elevation 3684 ft Threshold N/A Heading 271
Airport Frequencies
Type APP Name APP Frequency 119.2 MHZ
Type TWR Name TWR Frequency 119.2 MHZ
Airport Navaids
Type NDB Name Dodoma Frequency 373 KHZ
Airport Weather Information & NOTAM
ADDS - METARS form results

(1520 UTC 02 December 2022)
Data provider http://aviationweather.gov/metar/data/
 
Forecast for: HTDO (DODOMA , TZ)
Text: TAF HTDO 021100Z 0212/0312 09005KT 9999 SCT033
Forecast period: 1200 UTC 02 December 2022 to 1200 UTC 03 December 2022
Forecast type: FROM: standard forecast or significant change
Winds: from the E (90 degrees) at 6 MPH (5 knots; 2.6 m/s)
Visibility: 6 or more miles (10+ km)
Ceiling: at least 12,000 feet AGL
Clouds: scattered clouds at 3300 feet AGL
Weather: no significant weather forecast for this period